sensor_id;sensor_type;location;lat;lon;timestamp;pressure;altitude;pressure_sealevel;temperature;humidity
48244;BME280;34053;51.088;6.572;2023-03-18T00:01:49;100291.78;;;13.40;60.42
48244;BME280;34053;51.088;6.572;2023-03-18T00:04:20;100286.50;;;13.40;59.90
48244;BME280;34053;51.088;6.572;2023-03-18T00:06:50;100287.28;;;13.42;59.69
48244;BME280;34053;51.088;6.572;2023-03-18T00:09:21;100292.41;;;13.45;59.71
48244;BME280;34053;51.088;6.572;2023-03-18T00:11:52;100304.53;;;13.49;59.43
48244;BME280;34053;51.088;6.572;2023-03-18T00:14:25;100306.50;;;13.44;59.75
48244;BME280;34053;51.088;6.572;2023-03-18T00:16:57;100303.31;;;13.36;60.11
48244;BME280;34053;51.088;6.572;2023-03-18T00:19:27;100301.38;;;13.41;59.81
48244;BME280;34053;51.088;6.572;2023-03-18T00:21:58;100299.94;;;13.34;60.53
48244;BME280;34053;51.088;6.572;2023-03-18T00:24:29;100296.22;;;13.38;59.83
48244;BME280;34053;51.088;6.572;2023-03-18T00:26:59;100298.06;;;13.36;60.37
48244;BME280;34053;51.088;6.572;2023-03-18T00:29:30;100287.50;;;13.17;61.83
48244;BME280;34053;51.088;6.572;2023-03-18T00:32:01;100289.81;;;13.25;61.65
48244;BME280;34053;51.088;6.572;2023-03-18T00:34:31;100303.22;;;13.18;61.13
48244;BME280;34053;51.088;6.572;2023-03-18T00:37:02;100290.66;;;13.25;60.54
48244;BME280;34053;51.088;6.572;2023-03-18T00:39:33;100275.63;;;13.27;60.30
48244;BME280;34053;51.088;6.572;2023-03-18T00:42:05;100269.28;;;13.31;59.98
48244;BME280;34053;51.088;6.572;2023-03-18T00:44:39;100271.88;;;13.33;60.33
48244;BME280;34053;51.088;6.572;2023-03-18T00:47:10;100285.38;;;13.25;60.45
48244;BME280;34053;51.088;6.572;2023-03-18T00:49:40;100286.25;;;13.26;59.99
48244;BME280;34053;51.088;6.572;2023-03-18T00:52:11;100290.44;;;13.30;60.22
48244;BME280;34053;51.088;6.572;2023-03-18T00:54:42;100305.97;;;13.36;60.20
48244;BME280;34053;51.088;6.572;2023-03-18T00:57:13;100303.75;;;13.27;61.22
48244;BME280;34053;51.088;6.572;2023-03-18T00:59:43;100297.63;;;13.26;60.80
48244;BME280;34053;51.088;6.572;2023-03-18T01:02:14;100299.63;;;13.21;61.66
48244;BME280;34053;51.088;6.572;2023-03-18T01:04:45;100296.13;;;13.20;61.48
48244;BME280;34053;51.088;6.572;2023-03-18T01:07:16;100298.63;;;13.23;60.69
48244;BME280;34053;51.088;6.572;2023-03-18T01:09:47;100300.47;;;13.21;60.84
48244;BME280;34053;51.088;6.572;2023-03-18T01:12:18;100299.63;;;13.21;61.04
48244;BME280;34053;51.088;6.572;2023-03-18T01:14:49;100300.34;;;13.25;60.57
48244;BME280;34053;51.088;6.572;2023-03-18T01:17:19;100294.19;;;13.24;60.63
48244;BME280;34053;51.088;6.572;2023-03-18T01:19:50;100287.22;;;13.23;60.35
48244;BME280;34053;51.088;6.572;2023-03-18T01:22:20;100292.56;;;13.21;60.41
48244;BME280;34053;51.088;6.572;2023-03-18T01:24:51;100283.88;;;13.19;60.59
48244;BME280;34053;51.088;6.572;2023-03-18T01:27:22;100286.50;;;13.19;60.56
48244;BME280;34053;51.088;6.572;2023-03-18T01:29:52;100288.09;;;13.23;60.32
48244;BME280;34053;51.088;6.572;2023-03-18T01:32:23;100288.22;;;13.20;60.85
48244;BME280;34053;51.088;6.572;2023-03-18T01:34:53;100281.91;;;13.25;60.24
48244;BME280;34053;51.088;6.572;2023-03-18T01:37:25;100289.13;;;13.19;60.73
48244;BME280;34053;51.088;6.572;2023-03-18T01:39:56;100287.06;;;13.07;62.62
48244;BME280;34053;51.088;6.572;2023-03-18T01:42:27;100284.22;;;13.12;61.34
48244;BME280;34053;51.088;6.572;2023-03-18T01:45:22;100282.31;;;13.15;61.62
48244;BME280;34053;51.088;6.572;2023-03-18T01:47:54;100283.34;;;13.11;61.26
48244;BME280;34053;51.088;6.572;2023-03-18T01:50:30;100282.50;;;13.11;61.70
48244;BME280;34053;51.088;6.572;2023-03-18T01:53:05;100281.50;;;13.13;61.64
48244;BME280;34053;51.088;6.572;2023-03-18T01:55:38;100272.81;;;13.11;61.20
48244;BME280;34053;51.088;6.572;2023-03-18T01:58:23;100273.81;;;13.09;61.28
48244;BME280;34053;51.088;6.572;2023-03-18T02:00:59;100274.81;;;13.06;61.38
48244;BME280;34053;51.088;6.572;2023-03-18T02:03:32;100279.09;;;13.09;61.30
48244;BME280;34053;51.088;6.572;2023-03-18T02:06:03;100275.66;;;13.06;61.48
48244;BME280;34053;51.088;6.572;2023-03-18T02:08:36;100277.38;;;13.07;61.24
48244;BME280;34053;51.088;6.572;2023-03-18T02:11:08;100277.25;;;13.11;61.01
48244;BME280;34053;51.088;6.572;2023-03-18T02:13:42;100274.53;;;13.12;60.69
48244;BME280;34053;51.088;6.572;2023-03-18T02:16:23;100286.16;;;13.08;60.58
48244;BME280;34053;51.088;6.572;2023-03-18T02:18:59;100286.91;;;13.10;61.13
48244;BME280;34053;51.088;6.572;2023-03-18T02:21:43;100277.66;;;13.01;61.31
48244;BME280;34053;51.088;6.572;2023-03-18T02:29:56;100280.56;;;12.95;61.22
48244;BME280;34053;51.088;6.572;2023-03-18T02:32:29;100272.72;;;12.94;61.31
48244;BME280;34053;51.088;6.572;2023-03-18T02:35:04;100276.34;;;12.91;61.19
48244;BME280;34053;51.088;6.572;2023-03-18T02:37:37;100285.31;;;12.87;61.34
48244;BME280;34053;51.088;6.572;2023-03-18T02:40:25;100282.72;;;12.85;61.42
48244;BME280;34053;51.088;6.572;2023-03-18T02:42:56;100281.25;;;12.80;62.03
48244;BME280;34053;51.088;6.572;2023-03-18T02:45:34;100281.03;;;12.84;61.30
48244;BME280;34053;51.088;6.572;2023-03-18T02:48:10;100281.81;;;12.86;61.44
48244;BME280;34053;51.088;6.572;2023-03-18T02:50:43;100278.72;;;12.77;61.69
48244;BME280;34053;51.088;6.572;2023-03-18T02:53:14;100283.78;;;12.81;61.30
48244;BME280;34053;51.088;6.572;2023-03-18T02:55:45;100286.69;;;12.75;61.58
48244;BME280;34053;51.088;6.572;2023-03-18T02:58:16;100292.22;;;12.69;61.73
48244;BME280;34053;51.088;6.572;2023-03-18T03:00:46;100297.53;;;12.67;61.62
48244;BME280;34053;51.088;6.572;2023-03-18T03:03:17;100297.63;;;12.66;61.46
48244;BME280;34053;51.088;6.572;2023-03-18T03:05:47;100295.00;;;12.66;61.40
48244;BME280;34053;51.088;6.572;2023-03-18T03:08:18;100298.72;;;12.60;61.70
48244;BME280;34053;51.088;6.572;2023-03-18T03:10:50;100307.53;;;12.59;61.78
48244;BME280;34053;51.088;6.572;2023-03-18T03:13:22;100301.56;;;12.55;61.95
48244;BME280;34053;51.088;6.572;2023-03-18T03:15:53;100306.03;;;12.53;61.83
48244;BME280;34053;51.088;6.572;2023-03-18T03:18:24;100307.09;;;12.49;61.99
48244;BME280;34053;51.088;6.572;2023-03-18T03:20:55;100307.16;;;12.48;61.91
48244;BME280;34053;51.088;6.572;2023-03-18T03:23:26;100301.91;;;12.48;61.60
48244;BME280;34053;51.088;6.572;2023-03-18T03:25:57;100306.28;;;12.47;61.48
48244;BME280;34053;51.088;6.572;2023-03-18T03:28:29;100301.28;;;12.41;61.65
48244;BME280;34053;51.088;6.572;2023-03-18T03:31:01;100304.63;;;12.44;61.35
48244;BME280;34053;51.088;6.572;2023-03-18T03:33:32;100308.19;;;12.43;61.50
48244;BME280;34053;51.088;6.572;2023-03-18T03:36:03;100312.97;;;12.34;61.94
48244;BME280;34053;51.088;6.572;2023-03-18T03:38:33;100309.66;;;12.28;61.99
48244;BME280;34053;51.088;6.572;2023-03-18T03:41:04;100318.34;;;12.31;61.68
48244;BME280;34053;51.088;6.572;2023-03-18T03:43:38;100323.06;;;12.22;62.57
48244;BME280;34053;51.088;6.572;2023-03-18T03:46:10;100325.44;;;12.28;62.54
48244;BME280;34053;51.088;6.572;2023-03-18T03:48:41;100332.69;;;12.23;62.44
48244;BME280;34053;51.088;6.572;2023-03-18T03:51:13;100329.00;;;12.27;63.29
48244;BME280;34053;51.088;6.572;2023-03-18T03:53:44;100327.41;;;12.23;63.46
48244;BME280;34053;51.088;6.572;2023-03-18T03:56:15;100334.47;;;12.23;63.30
48244;BME280;34053;51.088;6.572;2023-03-18T03:58:46;100336.56;;;12.15;63.81
48244;BME280;34053;51.088;6.572;2023-03-18T04:01:17;100346.84;;;12.19;63.60
48244;BME280;34053;51.088;6.572;2023-03-18T04:03:47;100346.13;;;12.16;63.30
48244;BME280;34053;51.088;6.572;2023-03-18T04:06:18;100345.34;;;12.14;64.46
48244;BME280;34053;51.088;6.572;2023-03-18T04:08:49;100334.13;;;12.08;65.05
48244;BME280;34053;51.088;6.572;2023-03-18T04:11:20;100344.44;;;12.15;64.55
48244;BME280;34053;51.088;6.572;2023-03-18T04:13:51;100340.13;;;12.12;64.36
48244;BME280;34053;51.088;6.572;2023-03-18T04:16:21;100339.19;;;12.15;64.17
48244;BME280;34053;51.088;6.572;2023-03-18T04:18:52;100349.81;;;12.11;64.78
48244;BME280;34053;51.088;6.572;2023-03-18T04:21:22;100357.31;;;11.99;65.40
48244;BME280;34053;51.088;6.572;2023-03-18T04:23:53;100347.34;;;12.07;64.66
48244;BME280;34053;51.088;6.572;2023-03-18T04:26:23;100347.47;;;12.04;65.09
48244;BME280;34053;51.088;6.572;2023-03-18T04:28:54;100342.22;;;12.04;64.84
48244;BME280;34053;51.088;6.572;2023-03-18T04:31:24;100349.00;;;12.09;64.51
48244;BME280;34053;51.088;6.572;2023-03-18T04:33:55;100351.63;;;12.09;64.39
48244;BME280;34053;51.088;6.572;2023-03-18T04:36:26;100348.94;;;12.11;64.97
48244;BME280;34053;51.088;6.572;2023-03-18T04:38:57;100352.69;;;12.05;64.56
48244;BME280;34053;51.088;6.572;2023-03-18T04:41:29;100358.69;;;12.09;64.29
48244;BME280;34053;51.088;6.572;2023-03-18T04:43:59;100358.13;;;12.01;64.95
48244;BME280;34053;51.088;6.572;2023-03-18T04:46:30;100364.63;;;11.90;65.75
48244;BME280;34053;51.088;6.572;2023-03-18T04:49:01;100366.09;;;11.74;69.01
48244;BME280;34053;51.088;6.572;2023-03-18T04:51:32;100376.97;;;11.64;70.03
48244;BME280;34053;51.088;6.572;2023-03-18T04:54:02;100372.69;;;11.62;69.55
48244;BME280;34053;51.088;6.572;2023-03-18T04:56:33;100385.25;;;11.54;71.41
48244;BME280;34053;51.088;6.572;2023-03-18T04:59:04;100380.59;;;11.37;73.23
48244;BME280;34053;51.088;6.572;2023-03-18T05:01:35;100379.69;;;11.38;73.07
48244;BME280;34053;51.088;6.572;2023-03-18T05:04:05;100377.84;;;11.40;72.54
48244;BME280;34053;51.088;6.572;2023-03-18T05:06:37;100379.56;;;11.41;73.09
48244;BME280;34053;51.088;6.572;2023-03-18T05:09:07;100379.56;;;11.41;73.29
48244;BME280;34053;51.088;6.572;2023-03-18T05:11:38;100384.59;;;11.47;72.18
48244;BME280;34053;51.088;6.572;2023-03-18T05:14:09;100377.03;;;11.38;72.64
48244;BME280;34053;51.088;6.572;2023-03-18T05:16:39;100380.72;;;11.33;73.77
48244;BME280;34053;51.088;6.572;2023-03-18T05:19:11;100377.75;;;11.43;72.99
48244;BME280;34053;51.088;6.572;2023-03-18T05:21:41;100386.03;;;11.32;74.12
48244;BME280;34053;51.088;6.572;2023-03-18T05:24:12;100390.16;;;11.39;72.93
48244;BME280;34053;51.088;6.572;2023-03-18T05:26:42;100386.03;;;11.32;74.06
48244;BME280;34053;51.088;6.572;2023-03-18T05:29:13;100387.53;;;11.39;73.56
48244;BME280;34053;51.088;6.572;2023-03-18T05:31:45;100389.03;;;11.45;72.61
48244;BME280;34053;51.088;6.572;2023-03-18T05:34:16;100389.63;;;11.53;71.79
48244;BME280;34053;51.088;6.572;2023-03-18T05:36:46;100391.00;;;11.40;72.51
48244;BME280;34053;51.088;6.572;2023-03-18T05:39:17;100392.09;;;11.58;70.66
48244;BME280;34053;51.088;6.572;2023-03-18T05:41:48;100391.75;;;11.67;69.39
48244;BME280;34053;51.088;6.572;2023-03-18T05:44:18;100405.75;;;11.68;70.32
48244;BME280;34053;51.088;6.572;2023-03-18T05:46:49;100400.59;;;11.64;69.38
48244;BME280;34053;51.088;6.572;2023-03-18T05:49:21;100409.06;;;11.73;68.75
48244;BME280;34053;51.088;6.572;2023-03-18T05:51:52;100404.50;;;11.78;68.22
48244;BME280;34053;51.088;6.572;2023-03-18T05:54:23;100404.56;;;11.76;68.36
48244;BME280;34053;51.088;6.572;2023-03-18T05:56:54;100413.06;;;11.83;67.80
48244;BME280;34053;51.088;6.572;2023-03-18T05:59:25;100408.66;;;11.84;67.55
48244;BME280;34053;51.088;6.572;2023-03-18T06:01:55;100418.34;;;11.83;67.32
48244;BME280;34053;51.088;6.572;2023-03-18T06:04:26;100416.53;;;11.85;67.07
48244;BME280;34053;51.088;6.572;2023-03-18T06:06:57;100416.56;;;11.84;67.18
48244;BME280;34053;51.088;6.572;2023-03-18T06:09:27;100415.81;;;11.80;66.90
48244;BME280;34053;51.088;6.572;2023-03-18T06:11:58;100420.06;;;11.84;66.89
48244;BME280;34053;51.088;6.572;2023-03-18T06:14:29;100424.28;;;11.88;66.24
48244;BME280;34053;51.088;6.572;2023-03-18T06:17:00;100434.03;;;11.85;66.94
48244;BME280;34053;51.088;6.572;2023-03-18T06:19:31;100426.31;;;11.80;66.91
48244;BME280;34053;51.088;6.572;2023-03-18T06:22:01;100430.56;;;11.84;66.47
48244;BME280;34053;51.088;6.572;2023-03-18T06:24:32;100427.97;;;11.82;66.27
48244;BME280;34053;51.088;6.572;2023-03-18T06:27:02;100431.47;;;11.83;65.90
48244;BME280;34053;51.088;6.572;2023-03-18T06:29:33;100428.72;;;11.86;65.97
48244;BME280;34053;51.088;6.572;2023-03-18T06:32:04;100435.81;;;11.84;66.06
48244;BME280;34053;51.088;6.572;2023-03-18T06:34:35;100434.78;;;11.88;65.84
48244;BME280;34053;51.088;6.572;2023-03-18T06:37:05;100435.94;;;11.81;66.07
48244;BME280;34053;51.088;6.572;2023-03-18T06:39:37;100434.22;;;11.80;65.64
48244;BME280;34053;51.088;6.572;2023-03-18T06:42:07;100442.06;;;11.81;65.81
48244;BME280;34053;51.088;6.572;2023-03-18T06:44:39;100443.13;;;11.76;66.05
48244;BME280;34053;51.088;6.572;2023-03-18T06:47:12;100443.81;;;11.81;65.63
48244;BME280;34053;51.088;6.572;2023-03-18T06:49:42;100447.34;;;11.80;65.77
48244;BME280;34053;51.088;6.572;2023-03-18T06:52:13;100442.88;;;11.58;68.44
48244;BME280;34053;51.088;6.572;2023-03-18T06:54:44;100447.00;;;11.65;66.93
48244;BME280;34053;51.088;6.572;2023-03-18T06:57:15;100443.56;;;11.63;67.93
48244;BME280;34053;51.088;6.572;2023-03-18T06:59:46;100448.41;;;11.76;66.07
48244;BME280;34053;51.088;6.572;2023-03-18T07:02:17;100449.97;;;11.80;65.91
48244;BME280;34053;51.088;6.572;2023-03-18T07:04:48;100459.66;;;11.79;66.22
48244;BME280;34053;51.088;6.572;2023-03-18T07:07:19;100453.53;;;11.79;67.05
48244;BME280;34053;51.088;6.572;2023-03-18T07:09:51;100449.13;;;11.79;68.18
48244;BME280;34053;51.088;6.572;2023-03-18T07:12:21;100449.88;;;11.83;67.47
48244;BME280;34053;51.088;6.572;2023-03-18T07:14:55;100450.78;;;11.82;67.12
48244;BME280;34053;51.088;6.572;2023-03-18T07:17:25;100448.97;;;11.84;68.10
48244;BME280;34053;51.088;6.572;2023-03-18T07:19:55;100449.66;;;11.89;67.18
48244;BME280;34053;51.088;6.572;2023-03-18T07:22:26;100459.19;;;11.92;68.01
48244;BME280;34053;51.088;6.572;2023-03-18T07:24:56;100467.31;;;11.86;68.96
48244;BME280;34053;51.088;6.572;2023-03-18T07:27:27;100470.63;;;11.91;70.23
48244;BME280;34053;51.088;6.572;2023-03-18T07:29:58;100468.22;;;11.85;70.17
48244;BME280;34053;51.088;6.572;2023-03-18T07:32:28;100459.41;;;11.86;70.99
48244;BME280;34053;51.088;6.572;2023-03-18T07:34:59;100460.41;;;11.83;71.75
48244;BME280;34053;51.088;6.572;2023-03-18T07:37:32;100467.06;;;11.92;71.18
48244;BME280;34053;51.088;6.572;2023-03-18T07:40:03;100465.19;;;11.97;71.50
48244;BME280;34053;51.088;6.572;2023-03-18T07:42:33;100473.22;;;11.92;71.92
48244;BME280;34053;51.088;6.572;2023-03-18T07:45:05;100475.47;;;12.03;71.89
48244;BME280;34053;51.088;6.572;2023-03-18T07:47:37;100480.56;;;12.08;71.60
48244;BME280;34053;51.088;6.572;2023-03-18T07:50:09;100480.31;;;12.14;71.85
48244;BME280;34053;51.088;6.572;2023-03-18T07:52:40;100477.44;;;12.20;71.22
48244;BME280;34053;51.088;6.572;2023-03-18T07:55:11;100480.78;;;12.25;71.38
48244;BME280;34053;51.088;6.572;2023-03-18T07:57:41;100489.19;;;12.35;71.24
48244;BME280;34053;51.088;6.572;2023-03-18T08:00:13;100486.47;;;12.37;71.22
48244;BME280;34053;51.088;6.572;2023-03-18T08:02:43;100492.63;;;12.37;71.40
48244;BME280;34053;51.088;6.572;2023-03-18T08:05:14;100489.66;;;12.45;70.46
48244;BME280;34053;51.088;6.572;2023-03-18T08:07:45;100498.13;;;12.53;70.72
48244;BME280;34053;51.088;6.572;2023-03-18T08:10:15;100497.22;;;12.54;70.50
48244;BME280;34053;51.088;6.572;2023-03-18T08:12:46;100494.94;;;12.45;71.08
48244;BME280;34053;51.088;6.572;2023-03-18T08:15:17;100495.13;;;12.63;69.52
48244;BME280;34053;51.088;6.572;2023-03-18T08:17:49;100509.16;;;12.63;70.46
48244;BME280;34053;51.088;6.572;2023-03-18T08:20:19;100504.81;;;12.62;70.83
48244;BME280;34053;51.088;6.572;2023-03-18T08:22:50;100509.00;;;12.68;70.64
48244;BME280;34053;51.088;6.572;2023-03-18T08:25:21;100513.31;;;12.69;70.59
48244;BME280;34053;51.088;6.572;2023-03-18T08:27:52;100519.91;;;12.81;69.65
48244;BME280;34053;51.088;6.572;2023-03-18T08:30:23;100512.00;;;12.81;70.05
48244;BME280;34053;51.088;6.572;2023-03-18T08:32:58;100521.75;;;12.77;69.64
48244;BME280;34053;51.088;6.572;2023-03-18T08:35:28;100519.69;;;12.85;69.48
48244;BME280;34053;51.088;6.572;2023-03-18T08:37:59;100516.88;;;12.90;69.23
48244;BME280;34053;51.088;6.572;2023-03-18T08:40:29;100516.31;;;12.82;69.39
48244;BME280;34053;51.088;6.572;2023-03-18T08:43:00;100516.31;;;12.82;69.13
48244;BME280;34053;51.088;6.572;2023-03-18T08:45:30;100515.56;;;12.80;69.26
48244;BME280;34053;51.088;6.572;2023-03-18T08:48:01;100518.91;;;12.83;69.19
48244;BME280;34053;51.088;6.572;2023-03-18T08:50:33;100512.91;;;12.80;69.19
48244;BME280;34053;51.088;6.572;2023-03-18T08:53:04;100517.84;;;12.87;69.23
48244;BME280;34053;51.088;6.572;2023-03-18T08:55:35;100521.38;;;12.88;69.06
48244;BME280;34053;51.088;6.572;2023-03-18T08:58:09;100521.53;;;12.83;69.35
48244;BME280;34053;51.088;6.572;2023-03-18T09:00:41;100528.56;;;12.83;69.41
48244;BME280;34053;51.088;6.572;2023-03-18T09:03:12;100534.47;;;12.89;69.12
48244;BME280;34053;51.088;6.572;2023-03-18T09:05:46;100535.19;;;12.93;69.35
48244;BME280;34053;51.088;6.572;2023-03-18T09:08:17;100540.38;;;12.95;69.30
48244;BME280;34053;51.088;6.572;2023-03-18T09:10:52;100533.28;;;12.97;69.21
48244;BME280;34053;51.088;6.572;2023-03-18T09:13:23;100533.09;;;13.01;69.16
48244;BME280;34053;51.088;6.572;2023-03-18T09:15:57;100529.50;;;13.04;68.57
48244;BME280;34053;51.088;6.572;2023-03-18T09:18:27;100531.22;;;13.05;68.81
48244;BME280;34053;51.088;6.572;2023-03-18T09:20:58;100524.13;;;13.07;68.89
48244;BME280;34053;51.088;6.572;2023-03-18T09:23:30;100520.50;;;13.10;68.41
48244;BME280;34053;51.088;6.572;2023-03-18T09:26:01;100518.59;;;13.13;68.71
48244;BME280;34053;51.088;6.572;2023-03-18T09:28:31;100525.56;;;13.14;68.64
48244;BME280;34053;51.088;6.572;2023-03-18T09:31:02;100524.72;;;13.14;68.30
48244;BME280;34053;51.088;6.572;2023-03-18T09:33:33;100519.50;;;13.12;68.53
48244;BME280;34053;51.088;6.572;2023-03-18T09:36:06;100523.75;;;13.16;68.34
48244;BME280;34053;51.088;6.572;2023-03-18T09:38:37;100520.91;;;13.21;68.36
48244;BME280;34053;51.088;6.572;2023-03-18T09:41:34;100516.22;;;13.28;68.14
48244;BME280;34053;51.088;6.572;2023-03-18T09:52:36;100513.41;;;13.32;67.64
48244;BME280;34053;51.088;6.572;2023-03-18T09:55:26;100504.72;;;13.30;67.24
48244;BME280;34053;51.088;6.572;2023-03-18T09:58:01;100509.00;;;13.33;67.31
48244;BME280;34053;51.088;6.572;2023-03-18T10:00:34;100507.94;;;13.38;66.96
48244;BME280;34053;51.088;6.572;2023-03-18T10:05:45;100503.38;;;13.42;67.04
48244;BME280;34053;51.088;6.572;2023-03-18T10:08:37;100512.66;;;13.51;67.01
48244;BME280;34053;51.088;6.572;2023-03-18T10:11:18;100505.56;;;13.53;67.14
48244;BME280;34053;51.088;6.572;2023-03-18T10:17:22;100514.56;;;13.68;66.43
48244;BME280;34053;51.088;6.572;2023-03-18T10:19:57;100515.44;;;13.68;66.66
48244;BME280;34053;51.088;6.572;2023-03-18T10:25:15;100511.00;;;13.69;66.59
48244;BME280;34053;51.088;6.572;2023-03-18T10:31:05;100503.50;;;13.80;65.94
48244;BME280;34053;51.088;6.572;2023-03-18T10:37:05;100518.13;;;13.88;66.08
48244;BME280;34053;51.088;6.572;2023-03-18T10:39:36;100531.69;;;13.99;65.35
48244;BME280;34053;51.088;6.572;2023-03-18T10:42:17;100514.78;;;14.03;65.56
48244;BME280;34053;51.088;6.572;2023-03-18T10:44:49;100512.03;;;14.06;65.57
48244;BME280;34053;51.088;6.572;2023-03-18T10:47:25;100511.75;;;14.12;65.23
48244;BME280;34053;51.088;6.572;2023-03-18T10:50:30;100513.53;;;14.12;63.86
48244;BME280;34053;51.088;6.572;2023-03-18T10:53:26;100511.34;;;14.22;64.04
48244;BME280;34053;51.088;6.572;2023-03-18T10:55:59;100509.63;;;14.21;63.08
48244;BME280;34053;51.088;6.572;2023-03-18T10:58:33;100509.31;;;14.27;63.27
48244;BME280;34053;51.088;6.572;2023-03-18T11:01:06;100516.03;;;14.34;62.80
48244;BME280;34053;51.088;6.572;2023-03-18T11:03:52;100509.41;;;14.44;62.36
48244;BME280;34053;51.088;6.572;2023-03-18T11:09:21;100519.41;;;14.57;61.52
48244;BME280;34053;51.088;6.572;2023-03-18T11:12:01;100521.03;;;14.59;60.64
48244;BME280;34053;51.088;6.572;2023-03-18T11:14:33;100519.63;;;14.71;61.76
48244;BME280;34053;51.088;6.572;2023-03-18T11:17:28;100524.97;;;14.89;61.87
48244;BME280;34053;51.088;6.572;2023-03-18T11:20:12;100519.38;;;14.95;61.27
48244;BME280;34053;51.088;6.572;2023-03-18T11:22:51;100518.16;;;15.02;61.91
48244;BME280;34053;51.088;6.572;2023-03-18T11:25:24;100518.00;;;15.05;61.02
48244;BME280;34053;51.088;6.572;2023-03-18T11:28:04;100521.22;;;15.12;59.88
48244;BME280;34053;51.088;6.572;2023-03-18T11:31:05;100516.22;;;15.06;60.33
48244;BME280;34053;51.088;6.572;2023-03-18T11:33:35;100514.50;;;15.05;60.61
48244;BME280;34053;51.088;6.572;2023-03-18T11:36:08;100516.44;;;15.01;59.78
48244;BME280;34053;51.088;6.572;2023-03-18T11:38:39;100516.91;;;15.09;60.01
48244;BME280;34053;51.088;6.572;2023-03-18T11:41:17;100521.81;;;15.17;59.26
48244;BME280;34053;51.088;6.572;2023-03-18T11:44:00;100525.03;;;15.24;59.34
48244;BME280;34053;51.088;6.572;2023-03-18T11:46:41;100519.25;;;15.33;59.86
48244;BME280;34053;51.088;6.572;2023-03-18T11:49:19;100519.13;;;15.36;60.39
48244;BME280;34053;51.088;6.572;2023-03-18T11:51:56;100511.88;;;15.40;60.06
48244;BME280;34053;51.088;6.572;2023-03-18T12:08:36;100492.31;;;15.78;60.40
48244;BME280;34053;51.088;6.572;2023-03-18T12:22:09;100484.53;;;16.26;59.97
48244;BME280;34053;51.088;6.572;2023-03-18T12:33:21;100483.16;;;16.66;57.03
48244;BME280;34053;51.088;6.572;2023-03-18T12:39:20;100485.63;;;16.70;56.54
48244;BME280;34053;51.088;6.572;2023-03-18T12:47:49;100480.84;;;16.76;55.22
48244;BME280;34053;51.088;6.572;2023-03-18T12:53:04;100468.75;;;16.87;54.99
48244;BME280;34053;51.088;6.572;2023-03-18T12:55:42;100470.56;;;16.86;55.90
48244;BME280;34053;51.088;6.572;2023-03-18T12:58:24;100459.13;;;16.86;56.57
48244;BME280;34053;51.088;6.572;2023-03-18T13:01:09;100461.88;;;17.00;57.35
48244;BME280;34053;51.088;6.572;2023-03-18T13:03:55;100458.84;;;16.90;55.58
48244;BME280;34053;51.088;6.572;2023-03-18T13:06:36;100468.44;;;16.77;54.06
48244;BME280;34053;51.088;6.572;2023-03-18T13:09:26;100468.13;;;16.67;55.30
48244;BME280;34053;51.088;6.572;2023-03-18T13:12:19;100475.41;;;16.63;58.10
48244;BME280;34053;51.088;6.572;2023-03-18T13:15:19;100478.38;;;16.57;60.74
48244;BME280;34053;51.088;6.572;2023-03-18T13:20:46;100476.34;;;16.62;61.01
48244;BME280;34053;51.088;6.572;2023-03-18T13:43:12;100473.06;;;16.25;67.10
48244;BME280;34053;51.088;6.572;2023-03-18T13:45:46;100475.75;;;16.41;65.23
48244;BME280;34053;51.088;6.572;2023-03-18T13:48:30;100474.97;;;16.39;66.12
48244;BME280;34053;51.088;6.572;2023-03-18T13:53:58;100471.47;;;16.39;66.60
48244;BME280;34053;51.088;6.572;2023-03-18T13:56:43;100466.84;;;16.42;67.42
48244;BME280;34053;51.088;6.572;2023-03-18T14:05:00;100456.59;;;16.52;68.13
48244;BME280;34053;51.088;6.572;2023-03-18T14:07:47;100453.59;;;16.58;67.73
48244;BME280;34053;51.088;6.572;2023-03-18T14:10:21;100451.28;;;16.68;66.86
48244;BME280;34053;51.088;6.572;2023-03-18T14:12:54;100454.22;;;16.63;66.17
48244;BME280;34053;51.088;6.572;2023-03-18T14:15:39;100449.91;;;16.77;65.68
48244;BME280;34053;51.088;6.572;2023-03-18T14:18:26;100449.53;;;16.83;64.54
48244;BME280;34053;51.088;6.572;2023-03-18T14:21:22;100453.50;;;16.76;65.13
48244;BME280;34053;51.088;6.572;2023-03-18T14:38:14;100434.16;;;17.06;64.90
48244;BME280;34053;51.088;6.572;2023-03-18T14:40:55;100433.78;;;17.12;63.08
48244;BME280;34053;51.088;6.572;2023-03-18T14:43:37;100441.91;;;17.09;63.13
48244;BME280;34053;51.088;6.572;2023-03-18T14:46:17;100430.19;;;17.13;63.58
48244;BME280;34053;51.088;6.572;2023-03-18T14:48:54;100431.81;;;17.15;62.66
48244;BME280;34053;51.088;6.572;2023-03-18T14:51:29;100432.38;;;17.21;62.70
48244;BME280;34053;51.088;6.572;2023-03-18T14:54:17;100429.66;;;17.22;62.76
48244;BME280;34053;51.088;6.572;2023-03-18T14:56:56;100435.22;;;17.18;62.68
48244;BME280;34053;51.088;6.572;2023-03-18T14:59:41;100433.03;;;17.24;63.08
48244;BME280;34053;51.088;6.572;2023-03-18T15:02:23;100431.44;;;17.22;63.00
48244;BME280;34053;51.088;6.572;2023-03-18T15:04:55;100436.84;;;17.20;62.90
48244;BME280;34053;51.088;6.572;2023-03-18T15:07:33;100435.41;;;17.29;62.51
48244;BME280;34053;51.088;6.572;2023-03-18T15:10:09;100438.72;;;17.18;62.71
48244;BME280;34053;51.088;6.572;2023-03-18T15:12:42;100430.59;;;17.21;62.48
48244;BME280;34053;51.088;6.572;2023-03-18T15:15:18;100433.25;;;17.21;62.72
48244;BME280;34053;51.088;6.572;2023-03-18T15:17:49;100432.75;;;17.14;62.42
48244;BME280;34053;51.088;6.572;2023-03-18T15:20:27;100437.59;;;17.22;63.00
48244;BME280;34053;51.088;6.572;2023-03-18T15:23:02;100436.19;;;17.31;62.80
48244;BME280;34053;51.088;6.572;2023-03-18T15:25:38;100431.53;;;17.20;62.40
48244;BME280;34053;51.088;6.572;2023-03-18T15:28:17;100427.56;;;17.27;63.05